Time;durP1;ratioP1;P1;durP2;ratioP2;P2;SDS_P1;SDS_P2;PMS_P1;PMS_P2;Temp;Humidity;BMP_temperature;BMP_pressure;BME280_temperature;BME280_humidity;BME280_pressure;Samples;Min_cycle;Max_cycle;Signal;HPM_P1;HPM_P2
2023/03/23 00:01:19;;;;;;;5.82;4.20;;;11.20;99.90;;;;;;5058472;28;20036;-85
2023/03/23 00:03:46;;;;;;;8.23;4.07;;;11.20;99.90;;;;;;5063487;28;20055;-83
2023/03/23 00:06:16;;;;;;;8.45;4.65;;;11.20;99.90;;;;;;5062711;28;20024;-84
2023/03/23 00:08:47;;;;;;;8.20;4.40;;;11.20;99.90;;;;;;5058802;28;20023;-84
2023/03/23 00:11:21;;;;;;;6.65;4.50;;;11.20;99.90;;;;;;5081612;28;20032;-84
2023/03/23 00:13:51;;;;;;;5.43;3.72;;;11.20;99.90;;;;;;5080901;28;20032;-84
2023/03/23 00:16:19;;;;;;;6.50;4.53;;;11.20;99.90;;;;;;5080664;28;20016;-84
2023/03/23 00:18:52;;;;;;;6.22;4.38;;;11.20;99.90;;;;;;5065467;28;20052;-86
2023/03/23 00:21:25;;;;;;;6.85;4.40;;;11.20;99.90;;;;;;5064887;28;20028;-84
2023/03/23 00:23:51;;;;;;;9.43;4.78;;;11.20;99.90;;;;;;5061270;28;20455;-85
2023/03/23 00:26:17;;;;;;;7.05;3.85;;;11.20;99.90;;;;;;5061526;28;20596;-84
2023/03/23 00:28:46;;;;;;;6.50;4.00;;;11.20;99.90;;;;;;5066126;28;20042;-84
2023/03/23 00:31:12;;;;;;;7.07;4.68;;;11.20;99.90;;;;;;5065737;28;20028;-84
2023/03/23 00:33:40;;;;;;;7.43;4.60;;;11.20;99.90;;;;;;5065867;28;20105;-85
2023/03/23 00:36:08;;;;;;;7.57;4.45;;;11.20;99.90;;;;;;5061775;28;20020;-84
2023/03/23 00:38:35;;;;;;;7.07;4.57;;;11.20;99.90;;;;;;5059381;28;20029;-82
2023/03/23 00:41:03;;;;;;;7.93;4.40;;;11.20;99.90;;;;;;5061474;28;20028;-83
2023/03/23 00:43:30;;;;;;;7.60;4.57;;;11.20;99.90;;;;;;5066116;28;20028;-83
2023/03/23 00:46:00;;;;;;;8.02;4.45;;;11.20;99.90;;;;;;5063803;28;20036;-83
2023/03/23 00:48:27;;;;;;;6.80;4.13;;;11.20;99.90;;;;;;5064336;28;20035;-85
2023/03/23 00:50:53;;;;;;;7.82;4.78;;;11.20;99.90;;;;;;5066394;28;20024;-84
2023/03/23 00:53:19;;;;;;;7.97;4.13;;;11.20;99.90;;;;;;5064909;28;20029;-84
2023/03/23 00:55:46;;;;;;;7.28;4.57;;;11.20;99.90;;;;;;5063824;28;20025;-84
2023/03/23 00:58:13;;;;;;;7.13;3.90;;;11.20;99.90;;;;;;5058789;28;20029;-82
2023/03/23 01:00:39;;;;;;;6.55;4.10;;;11.20;99.90;;;;;;5062890;28;20032;-85
2023/03/23 01:03:05;;;;;;;6.82;3.95;;;11.20;99.90;;;;;;5066454;28;20402;-85
2023/03/23 01:05:39;;;;;;;6.85;3.97;;;11.20;99.90;;;;;;5061548;28;20039;-84
2023/03/23 01:08:06;;;;;;;9.13;4.50;;;11.10;99.90;;;;;;5058895;28;20462;-84
2023/03/23 01:10:32;;;;;;;6.93;4.30;;;11.20;99.90;;;;;;5065776;28;20035;-85
2023/03/23 01:13:01;;;;;;;7.03;4.57;;;11.10;99.90;;;;;;5060997;28;20120;-85
2023/03/23 01:15:28;;;;;;;7.65;4.85;;;11.10;99.90;;;;;;5066770;28;20180;-83
2023/03/23 01:17:54;;;;;;;9.52;5.05;;;11.10;99.90;;;;;;5059282;28;20024;-84
2023/03/23 01:20:20;;;;;;;6.97;4.75;;;11.00;99.90;;;;;;5065808;28;20016;-83
2023/03/23 01:22:46;;;;;;;8.07;5.20;;;11.00;99.90;;;;;;5067789;28;20482;-84
2023/03/23 01:25:13;;;;;;;10.05;5.45;;;11.00;99.90;;;;;;5065337;28;20047;-85
2023/03/23 01:27:39;;;;;;;12.00;5.30;;;11.10;99.90;;;;;;5057532;28;20033;-84
2023/03/23 01:30:06;;;;;;;10.55;6.00;;;11.00;99.90;;;;;;5064924;28;20029;-83
2023/03/23 01:32:32;;;;;;;7.95;4.78;;;11.00;99.90;;;;;;5061203;28;20386;-85
2023/03/23 01:34:58;;;;;;;6.43;4.90;;;11.10;99.90;;;;;;5064521;28;20025;-83
2023/03/23 01:37:26;;;;;;;6.90;4.38;;;11.10;99.90;;;;;;5058399;28;20596;-85
2023/03/23 01:39:53;;;;;;;7.10;4.38;;;11.10;99.90;;;;;;5064304;28;20115;-83
2023/03/23 01:42:22;;;;;;;6.97;4.65;;;11.20;99.90;;;;;;5061880;28;20115;-84
2023/03/23 01:44:48;;;;;;;7.45;4.40;;;11.20;99.90;;;;;;5064431;28;20040;-84
2023/03/23 01:47:14;;;;;;;7.07;4.78;;;11.20;99.90;;;;;;5064398;28;20021;-84
2023/03/23 01:49:45;;;;;;;7.95;4.65;;;11.30;99.90;;;;;;5062815;28;20025;-84
2023/03/23 01:52:21;;;;;;;7.65;4.65;;;11.20;99.90;;;;;;5058326;28;20035;-84
2023/03/23 01:54:48;;;;;;;7.30;4.32;;;11.30;99.90;;;;;;5064592;28;20378;-85
2023/03/23 01:57:21;;;;;;;6.72;4.28;;;11.30;99.90;;;;;;5058501;28;20028;-84
2023/03/23 01:59:51;;;;;;;6.87;4.70;;;11.30;99.90;;;;;;5073092;28;20979;-84
2023/03/23 02:02:21;;;;;;;6.13;4.38;;;11.30;99.90;;;;;;5087544;28;20036;-83
2023/03/23 02:04:46;;;;;;;5.88;4.38;;;11.30;99.90;;;;;;5067983;28;20498;-83
2023/03/23 02:07:15;;;;;;;6.88;4.60;;;11.40;99.90;;;;;;5081708;28;20128;-84
2023/03/23 02:09:40;;;;;;;6.63;4.72;;;11.40;99.90;;;;;;5071663;28;20100;-84
2023/03/23 02:12:06;;;;;;;7.03;5.00;;;11.40;99.90;;;;;;5067093;28;20036;-84
2023/03/23 02:14:32;;;;;;;5.85;4.20;;;11.40;99.90;;;;;;5072329;28;20096;-84
2023/03/23 02:17:12;;;;;;;7.53;4.75;;;11.40;99.90;;;;;;5070710;28;20066;-84
2023/03/23 02:19:46;;;;;;;7.40;4.95;;;11.40;99.90;;;;;;5072799;28;20029;-84
2023/03/23 02:22:30;;;;;;;6.93;4.65;;;11.50;99.90;;;;;;5071799;28;20052;-84
2023/03/23 02:25:35;;;;;;;5.80;4.13;;;11.50;99.90;;;;;;5071343;28;20032;-84
2023/03/23 02:28:11;;;;;;;6.70;4.45;;;11.50;99.90;;;;;;5072014;28;20227;-84
2023/03/23 02:31:08;;;;;;;7.00;4.35;;;11.50;99.90;;;;;;5070602;28;20781;-85
2023/03/23 02:33:53;;;;;;;8.55;4.65;;;11.50;99.90;;;;;;5059912;28;20474;-85
2023/03/23 02:36:46;;;;;;;6.57;4.72;;;11.50;99.90;;;;;;5069283;28;20036;-84
2023/03/23 02:39:32;;;;;;;8.00;5.50;;;11.50;99.90;;;;;;5065502;28;20036;-85
2023/03/23 02:42:07;;;;;;;8.88;5.57;;;11.50;99.90;;;;;;5070431;28;20056;-83
2023/03/23 02:44:35;;;;;;;7.63;5.13;;;11.60;99.90;;;;;;5071129;28;20449;-84
2023/03/23 02:47:04;;;;;;;6.40;4.50;;;11.60;99.90;;;;;;5073270;28;20024;-84
2023/03/23 02:49:35;;;;;;;6.60;4.82;;;11.60;99.90;;;;;;5072764;28;20472;-84
2023/03/23 02:52:04;;;;;;;6.85;4.93;;;11.60;99.90;;;;;;5072357;28;20033;-84
2023/03/23 02:54:30;;;;;;;6.90;4.57;;;11.60;99.90;;;;;;5067173;28;20029;-84
2023/03/23 02:56:57;;;;;;;7.95;4.85;;;11.60;99.90;;;;;;5069856;28;20070;-84
2023/03/23 02:59:23;;;;;;;5.82;4.45;;;11.60;99.90;;;;;;5067550;28;20028;-84
2023/03/23 03:01:57;;;;;;;8.63;4.45;;;11.60;99.90;;;;;;5071390;28;20028;-84
2023/03/23 03:04:26;;;;;;;6.28;4.47;;;11.60;99.90;;;;;;5085276;28;20073;-84
2023/03/23 03:07:24;;;;;;;6.82;4.35;;;11.60;99.90;;;;;;5070162;28;20025;-84
2023/03/23 03:10:02;;;;;;;7.30;4.43;;;11.70;99.90;;;;;;5067333;28;20027;-84
2023/03/23 03:12:34;;;;;;;6.53;3.90;;;11.60;99.90;;;;;;5085612;28;20032;-85
2023/03/23 03:15:23;;;;;;;7.90;4.10;;;11.60;99.90;;;;;;5064398;28;20063;-84
2023/03/23 03:18:12;;;;;;;4.55;3.42;;;11.60;99.90;;;;;;5067376;28;20032;-85
2023/03/23 03:20:44;;;;;;;6.43;4.28;;;11.70;99.90;;;;;;5068672;28;20467;-84
2023/03/23 03:23:12;;;;;;;6.93;4.35;;;11.60;99.90;;;;;;5048397;28;20040;-85
2023/03/23 03:25:41;;;;;;;6.00;4.72;;;11.70;99.90;;;;;;5068501;28;20139;-84
2023/03/23 03:28:07;;;;;;;5.70;4.22;;;11.60;99.90;;;;;;5062130;28;20017;-84
2023/03/23 03:30:35;;;;;;;4.18;3.28;;;11.60;99.90;;;;;;5067157;28;20037;-84
2023/03/23 03:33:02;;;;;;;5.20;3.42;;;11.70;99.90;;;;;;5061985;28;20024;-84
2023/03/23 03:35:30;;;;;;;6.40;3.90;;;11.60;99.90;;;;;;5066208;28;20054;-85
2023/03/23 03:37:57;;;;;;;7.20;3.60;;;11.60;99.90;;;;;;5064624;28;20541;-83
2023/03/23 03:40:23;;;;;;;9.20;4.72;;;11.60;99.90;;;;;;5067202;28;20024;-84
2023/03/23 03:42:49;;;;;;;6.80;3.85;;;11.60;99.90;;;;;;5067242;28;20039;-83
2023/03/23 03:45:18;;;;;;;5.45;3.80;;;11.50;99.90;;;;;;5067604;28;20126;-84
2023/03/23 03:47:44;;;;;;;7.15;4.55;;;11.60;99.90;;;;;;5059025;28;20122;-84
2023/03/23 03:50:10;;;;;;;5.75;4.20;;;11.50;99.90;;;;;;5066142;28;20116;-85
2023/03/23 03:52:38;;;;;;;5.78;4.00;;;11.60;99.90;;;;;;5068133;28;20081;-84
2023/03/23 03:55:04;;;;;;;6.97;4.10;;;11.60;99.90;;;;;;5065145;28;20036;-85
2023/03/23 03:57:30;;;;;;;9.55;4.63;;;11.60;99.90;;;;;;5063478;28;20047;-85
2023/03/23 03:59:56;;;;;;;6.82;4.35;;;11.60;99.90;;;;;;5082837;28;20486;-85
2023/03/23 04:02:22;;;;;;;7.47;4.18;;;11.60;99.90;;;;;;5060170;28;20021;-84
2023/03/23 04:04:48;;;;;;;7.18;3.95;;;11.60;99.90;;;;;;5061738;28;20048;-85
2023/03/23 04:07:16;;;;;;;5.78;4.00;;;11.70;99.90;;;;;;5060209;28;20028;-85
2023/03/23 04:09:43;;;;;;;7.15;4.07;;;11.70;99.90;;;;;;5067721;28;20074;-86
2023/03/23 04:12:08;;;;;;;10.05;4.65;;;11.70;99.90;;;;;;5065999;28;20105;-84
2023/03/23 04:14:34;;;;;;;8.30;4.38;;;11.70;99.90;;;;;;5064923;28;20040;-85
2023/03/23 04:17:00;;;;;;;7.43;4.53;;;11.70;99.90;;;;;;5067054;28;20029;-85
2023/03/23 04:19:28;;;;;;;7.90;4.57;;;11.80;99.90;;;;;;5065054;28;20461;-85
2023/03/23 04:21:54;;;;;;;8.93;4.40;;;11.80;99.90;;;;;;5081209;28;20064;-83
2023/03/23 04:24:21;;;;;;;6.65;4.18;;;11.80;99.90;;;;;;5065935;28;20085;-85
2023/03/23 04:26:47;;;;;;;6.97;4.07;;;11.80;99.90;;;;;;5060692;28;20057;-85
2023/03/23 04:29:13;;;;;;;6.63;4.00;;;11.80;99.90;;;;;;5063117;28;20039;-84
2023/03/23 04:31:39;;;;;;;4.93;3.65;;;11.90;99.90;;;;;;5064127;28;20382;-84
2023/03/23 04:34:05;;;;;;;7.30;3.53;;;11.90;99.90;;;;;;5064677;28;20028;-86
2023/03/23 04:36:33;;;;;;;7.15;4.32;;;11.90;99.90;;;;;;5063113;28;20032;-83
2023/03/23 04:39:00;;;;;;;7.13;4.05;;;11.90;99.90;;;;;;5060651;28;20025;-86
2023/03/23 04:41:26;;;;;;;4.88;3.40;;;11.90;99.90;;;;;;5058218;28;22282;-84
2023/03/23 04:43:53;;;;;;;6.45;3.58;;;11.90;99.90;;;;;;5066238;28;20067;-84
2023/03/23 04:46:21;;;;;;;5.50;3.15;;;11.90;99.90;;;;;;5063869;28;20031;-85
2023/03/23 04:48:47;;;;;;;7.50;3.90;;;12.00;99.90;;;;;;5058343;28;20054;-84
2023/03/23 04:51:13;;;;;;;7.57;3.95;;;12.00;99.90;;;;;;5064618;28;20025;-84
2023/03/23 04:53:38;;;;;;;7.57;2.90;;;12.00;99.90;;;;;;5065226;28;20024;-84
2023/03/23 04:56:04;;;;;;;6.63;3.05;;;12.10;99.90;;;;;;5065332;28;20101;-84
2023/03/23 04:58:33;;;;;;;5.57;2.90;;;12.10;99.90;;;;;;5062686;28;20380;-84
2023/03/23 05:00:59;;;;;;;7.85;3.05;;;12.10;99.90;;;;;;5079882;28;20382;-84
2023/03/23 05:03:25;;;;;;;7.10;2.95;;;12.10;99.90;;;;;;5063337;28;20052;-83
2023/03/23 05:05:51;;;;;;;6.10;2.92;;;12.10;99.90;;;;;;5062604;28;20040;-84
2023/03/23 05:08:18;;;;;;;5.15;2.83;;;12.10;99.90;;;;;;5060946;28;20027;-84
2023/03/23 05:10:53;;;;;;;7.45;2.60;;;12.10;99.90;;;;;;5064844;28;20089;-84
2023/03/23 05:13:19;;;;;;;7.07;3.00;;;12.10;99.90;;;;;;5064105;28;20470;-84
2023/03/23 05:15:45;;;;;;;6.68;2.80;;;12.10;99.90;;;;;;5064507;28;20036;-83
2023/03/23 05:18:10;;;;;;;6.75;2.70;;;12.10;99.90;;;;;;5063785;28;20470;-83
2023/03/23 05:20:37;;;;;;;6.75;2.30;;;12.10;99.90;;;;;;5064408;28;20040;-85
2023/03/23 05:23:03;;;;;;;8.85;2.78;;;12.10;99.90;;;;;;5079992;28;20081;-84
2023/03/23 05:25:28;;;;;;;5.88;2.47;;;12.10;99.90;;;;;;5061869;28;20025;-82
2023/03/23 05:27:54;;;;;;;5.38;2.08;;;12.10;99.90;;;;;;5063301;28;20012;-84
2023/03/23 05:30:21;;;;;;;7.45;2.45;;;12.10;99.90;;;;;;5056437;28;20482;-83
2023/03/23 05:32:50;;;;;;;6.32;1.90;;;12.10;99.90;;;;;;5060395;28;20528;-85
2023/03/23 05:35:17;;;;;;;5.00;1.80;;;12.10;99.90;;;;;;5060739;28;20039;-84
2023/03/23 05:37:43;;;;;;;5.90;2.20;;;12.20;99.90;;;;;;5063443;28;20059;-84
2023/03/23 05:40:11;;;;;;;9.30;2.05;;;12.10;99.90;;;;;;5063180;28;20017;-84
2023/03/23 05:42:39;;;;;;;5.15;1.70;;;12.10;99.90;;;;;;5063630;28;20029;-85
2023/03/23 05:45:06;;;;;;;7.03;2.25;;;12.10;99.90;;;;;;5057956;28;20040;-84
2023/03/23 05:47:32;;;;;;;6.72;2.05;;;12.10;99.90;;;;;;5058461;28;20385;-83
2023/03/23 05:49:58;;;;;;;6.82;1.70;;;12.10;99.90;;;;;;5065198;28;20039;-85
2023/03/23 05:52:24;;;;;;;6.32;1.92;;;12.10;99.90;;;;;;5063167;28;20024;-84
2023/03/23 05:54:50;;;;;;;7.20;2.15;;;12.00;99.90;;;;;;5065656;28;20085;-86
2023/03/23 05:57:16;;;;;;;4.55;1.70;;;12.00;99.90;;;;;;5064241;28;20123;-85
2023/03/23 05:59:43;;;;;;;4.15;1.33;;;12.00;99.90;;;;;;5076212;28;20082;-86
2023/03/23 06:02:09;;;;;;;6.53;1.70;;;12.00;99.90;;;;;;5059441;28;20135;-85
2023/03/23 06:04:37;;;;;;;5.80;1.45;;;12.00;99.90;;;;;;5057850;28;20036;-85
2023/03/23 06:07:03;;;;;;;5.30;1.65;;;12.10;99.90;;;;;;5061807;28;20047;-85
2023/03/23 06:09:29;;;;;;;4.85;1.35;;;12.10;99.90;;;;;;5060143;28;20039;-85
2023/03/23 06:11:54;;;;;;;6.05;1.60;;;12.10;99.90;;;;;;5064131;28;20063;-85
2023/03/23 06:14:21;;;;;;;9.05;1.58;;;12.10;99.90;;;;;;5061934;28;20499;-87
2023/03/23 06:16:47;;;;;;;7.22;1.58;;;12.20;99.90;;;;;;5060338;28;20108;-85
2023/03/23 06:19:12;;;;;;;6.82;1.60;;;12.20;99.90;;;;;;5076825;28;20179;-86
2023/03/23 06:21:38;;;;;;;5.95;1.92;;;12.20;99.90;;;;;;5062068;28;20024;-85
2023/03/23 06:24:04;;;;;;;4.93;1.55;;;12.20;99.90;;;;;;5061518;28;20070;-86
2023/03/23 06:26:38;;;;;;;5.28;1.27;;;12.20;99.90;;;;;;5064846;28;20774;-85
2023/03/23 06:29:10;;;;;;;4.65;1.48;;;12.20;99.90;;;;;;5062216;28;20025;-86
2023/03/23 06:31:39;;;;;;;6.35;1.40;;;12.30;99.90;;;;;;5059673;28;20498;-85
2023/03/23 06:34:05;;;;;;;7.05;1.77;;;12.30;99.90;;;;;;5056415;28;20461;-86
2023/03/23 06:36:31;;;;;;;7.18;1.67;;;12.30;99.90;;;;;;5058973;28;20142;-85
2023/03/23 06:38:57;;;;;;;5.57;1.45;;;12.30;99.90;;;;;;5057408;28;20107;-85
2023/03/23 06:41:22;;;;;;;6.03;1.45;;;12.30;99.90;;;;;;5059753;28;20031;-86
2023/03/23 06:43:48;;;;;;;5.07;1.48;;;12.30;99.90;;;;;;5063128;28;20033;-87
2023/03/23 06:46:13;;;;;;;6.13;1.60;;;12.30;99.90;;;;;;5084066;28;20584;-85
2023/03/23 06:48:39;;;;;;;4.72;1.25;;;12.30;99.90;;;;;;5064872;28;20875;-86
2023/03/23 06:51:05;;;;;;;6.15;1.58;;;12.30;99.90;;;;;;5062950;28;20037;-86
2023/03/23 06:53:31;;;;;;;5.45;1.23;;;12.30;99.90;;;;;;5061737;28;20027;-85
2023/03/23 06:55:57;;;;;;;4.68;1.60;;;12.30;99.90;;;;;;5065571;28;20032;-84
2023/03/23 06:58:23;;;;;;;3.28;1.48;;;12.20;99.90;;;;;;5065761;28;20891;-85
2023/03/23 07:00:54;;;;;;;10.02;2.45;;;12.20;99.90;;;;;;5066019;28;20165;-83
2023/03/23 07:03:19;;;;;;;11.02;2.05;;;12.30;99.90;;;;;;5063005;28;20041;-85
2023/03/23 07:05:47;;;;;;;5.15;1.75;;;12.30;99.90;;;;;;5063499;28;20047;-84
2023/03/23 07:08:14;;;;;;;6.65;1.80;;;12.20;99.90;;;;;;5065846;28;20076;-85
2023/03/23 07:10:40;;;;;;;6.82;1.58;;;12.30;99.90;;;;;;5065058;28;20441;-84
2023/03/23 07:13:05;;;;;;;5.78;1.40;;;12.30;99.90;;;;;;5064000;28;20481;-86
2023/03/23 07:15:31;;;;;;;6.32;1.48;;;12.30;99.90;;;;;;5064203;28;20033;-86
2023/03/23 07:17:57;;;;;;;7.63;1.83;;;12.30;99.90;;;;;;5065928;28;20482;-85
2023/03/23 07:20:22;;;;;;;5.50;1.60;;;12.30;99.90;;;;;;5067635;28;20105;-85
2023/03/23 07:22:49;;;;;;;6.30;1.95;;;12.20;99.90;;;;;;5066113;28;20028;-85
2023/03/23 07:25:15;;;;;;;5.90;1.67;;;12.20;99.90;;;;;;5067032;28;20036;-85
2023/03/23 07:27:41;;;;;;;6.15;2.00;;;12.20;99.90;;;;;;5066263;28;20032;-85
2023/03/23 07:30:07;;;;;;;5.70;1.67;;;12.20;99.90;;;;;;5065454;28;20386;-85
2023/03/23 07:32:33;;;;;;;6.00;1.92;;;12.20;99.90;;;;;;5081200;28;20036;-86
2023/03/23 07:34:58;;;;;;;10.57;2.00;;;12.20;99.90;;;;;;5066692;28;20025;-83
2023/03/23 07:37:25;;;;;;;8.38;1.80;;;12.20;99.90;;;;;;5064252;28;20492;-86
2023/03/23 07:39:53;;;;;;;4.35;1.17;;;12.20;99.90;;;;;;5059931;28;20023;-85
2023/03/23 07:42:18;;;;;;;5.13;1.50;;;12.20;99.90;;;;;;5066341;28;20024;-85
2023/03/23 07:44:44;;;;;;;6.15;1.27;;;12.30;99.90;;;;;;5082009;28;20042;-85
2023/03/23 07:47:10;;;;;;;5.10;1.42;;;12.20;99.90;;;;;;5060633;28;20111;-88
2023/03/23 07:49:35;;;;;;;3.17;1.00;;;12.20;99.90;;;;;;5061708;28;20079;-85
2023/03/23 07:52:02;;;;;;;4.07;1.33;;;12.20;99.90;;;;;;5062119;28;20062;-84
2023/03/23 07:54:28;;;;;;;4.90;1.17;;;12.00;99.90;;;;;;5066269;28;20017;-85
2023/03/23 07:56:53;;;;;;;5.90;1.60;;;12.00;99.90;;;;;;5059497;28;20035;-84
2023/03/23 07:59:20;;;;;;;4.65;1.38;;;11.80;99.90;;;;;;5082880;28;20036;-87
2023/03/23 08:01:45;;;;;;;7.55;1.67;;;11.60;99.90;;;;;;5064497;28;20024;-88
2023/03/23 08:04:13;;;;;;;2.80;1.13;;;11.40;99.90;;;;;;5068729;28;20631;-87
2023/03/23 08:06:39;;;;;;;4.43;1.42;;;11.30;99.90;;;;;;5066778;28;20036;-86
2023/03/23 08:09:08;;;;;;;6.20;1.60;;;11.20;99.90;;;;;;5067842;28;20023;-86
2023/03/23 08:11:34;;;;;;;6.03;1.45;;;11.10;99.90;;;;;;5063371;28;20040;-86
2023/03/23 08:14:00;;;;;;;7.85;2.00;;;11.20;99.90;;;;;;5065164;28;20170;-86
2023/03/23 08:16:25;;;;;;;4.97;1.73;;;11.20;99.90;;;;;;5064286;28;20110;-86
2023/03/23 08:18:51;;;;;;;7.50;2.08;;;11.20;99.90;;;;;;5063216;28;20032;-85
2023/03/23 08:21:17;;;;;;;7.50;1.65;;;11.20;99.90;;;;;;5063466;28;20020;-85
2023/03/23 08:23:43;;;;;;;7.18;1.63;;;11.30;99.90;;;;;;5061772;28;20036;-84
2023/03/23 08:26:09;;;;;;;7.28;2.08;;;11.30;99.90;;;;;;5056320;28;20394;-86
2023/03/23 08:28:36;;;;;;;5.90;1.90;;;11.30;99.90;;;;;;5065361;28;20032;-86
2023/03/23 08:31:10;;;;;;;6.05;2.30;;;11.40;99.90;;;;;;5064777;28;20037;-85
2023/03/23 08:33:36;;;;;;;7.32;2.25;;;11.30;99.90;;;;;;5079522;28;20039;-86
2023/03/23 08:36:03;;;;;;;6.63;1.65;;;11.30;99.90;;;;;;5064513;28;20032;-85
2023/03/23 08:38:29;;;;;;;4.88;1.90;;;11.30;99.90;;;;;;5084486;28;20086;-87
2023/03/23 08:41:00;;;;;;;7.85;1.98;;;11.40;99.90;;;;;;5066309;28;20436;-86
2023/03/23 08:43:28;;;;;;;5.82;1.67;;;11.40;99.90;;;;;;5063846;28;20044;-87
2023/03/23 08:45:54;;;;;;;5.57;1.70;;;11.50;99.90;;;;;;5081613;28;20043;-86
2023/03/23 08:48:20;;;;;;;4.65;1.60;;;11.60;99.90;;;;;;5066861;28;20024;-87
2023/03/23 08:50:46;;;;;;;5.18;1.77;;;11.60;99.90;;;;;;5070422;28;20020;-86
2023/03/23 08:53:12;;;;;;;3.85;1.50;;;11.70;99.90;;;;;;5065077;28;20048;-83
2023/03/23 08:55:39;;;;;;;7.18;1.52;;;11.70;99.90;;;;;;5068192;28;20021;-88
2023/03/23 08:58:05;;;;;;;6.05;1.50;;;11.70;99.90;;;;;;5071739;28;20064;-88
2023/03/23 09:00:34;;;;;;;5.47;1.42;;;11.70;99.90;;;;;;5067124;28;20106;-87
2023/03/23 09:02:59;;;;;;;4.15;1.48;;;11.60;99.90;;;;;;5063035;28;20064;-86
2023/03/23 09:05:27;;;;;;;4.40;1.27;;;11.60;99.90;;;;;;5065521;28;20071;-87
2023/03/23 09:07:58;;;;;;;4.75;1.83;;;11.60;99.90;;;;;;5063168;28;21757;-86
2023/03/23 09:10:25;;;;;;;3.42;1.20;;;11.60;99.90;;;;;;5067197;28;20036;-86
2023/03/23 09:12:52;;;;;;;2.92;1.08;;;11.60;99.90;;;;;;5068305;28;20501;-84
2023/03/23 09:15:19;;;;;;;3.05;1.17;;;11.60;99.90;;;;;;5064718;28;20016;-86
2023/03/23 09:17:48;;;;;;;5.28;1.38;;;11.70;99.90;;;;;;5066018;28;20036;-85
2023/03/23 09:20:15;;;;;;;3.33;1.05;;;11.90;99.90;;;;;;5059510;28;20032;-87
2023/03/23 09:22:44;;;;;;;3.80;1.27;;;12.10;99.90;;;;;;5061945;28;20398;-87
2023/03/23 09:25:12;;;;;;;4.72;0.90;;;12.30;99.90;;;;;;5060264;28;20064;-87
2023/03/23 09:27:41;;;;;;;4.53;0.95;;;12.30;99.90;;;;;;5064226;28;20024;-86
2023/03/23 09:30:10;;;;;;;4.25;1.17;;;12.50;99.90;;;;;;5061525;28;20028;-88
2023/03/23 09:32:37;;;;;;;3.15;1.02;;;12.60;99.90;;;;;;5064003;28;20024;-87
2023/03/23 09:35:06;;;;;;;4.05;1.00;;;12.70;99.90;;;;;;5065825;28;20031;-87
2023/03/23 09:37:32;;;;;;;5.43;1.00;;;12.80;99.90;;;;;;5081310;28;20078;-86
2023/03/23 09:39:58;;;;;;;6.85;1.40;;;13.00;99.90;;;;;;5064710;28;20029;-84
2023/03/23 09:42:38;;;;;;;5.05;1.42;;;13.00;99.90;;;;;;5067279;28;20024;-85
2023/03/23 09:45:33;;;;;;;4.57;1.40;;;13.00;99.90;;;;;;5082834;28;22338;-85
2023/03/23 09:48:47;;;;;;;5.60;1.15;;;13.10;99.90;;;;;;5065721;28;20025;-86
2023/03/23 09:51:40;;;;;;;6.18;1.17;;;13.30;99.90;;;;;;5047115;28;20109;-88
2023/03/23 09:54:14;;;;;;;7.45;1.27;;;14.60;99.90;;;;;;5062782;28;20588;-86
2023/03/23 09:56:40;;;;;;;8.00;1.88;;;15.80;99.90;;;;;;5063346;28;20020;-86
2023/03/23 09:59:20;;;;;;;5.20;1.30;;;16.50;99.90;;;;;;5064415;28;20098;-86
2023/03/23 10:01:48;;;;;;;5.50;1.40;;;17.20;99.90;;;;;;5063180;28;20023;-87
2023/03/23 10:04:43;;;;;;;7.28;1.80;;;17.70;99.90;;;;;;5065474;28;20048;-85
2023/03/23 10:07:21;;;;;;;7.50;1.90;;;18.10;99.90;;;;;;5066594;28;20056;-86
2023/03/23 10:09:52;;;;;;;5.60;1.52;;;18.20;99.90;;;;;;5063553;28;20130;-86
2023/03/23 10:12:39;;;;;;;6.80;1.50;;;18.10;99.90;;;;;;5064499;28;20036;-88
2023/03/23 10:15:14;;;;;;;5.30;1.40;;;18.50;99.90;;;;;;5068071;28;20028;-86
2023/03/23 10:17:46;;;;;;;8.32;1.50;;;19.10;99.90;;;;;;5082790;28;20082;-86
2023/03/23 10:20:44;;;;;;;6.72;1.80;;;19.40;99.90;;;;;;5068537;28;20024;-85
2023/03/23 10:23:48;;;;;;;4.90;1.30;;;19.10;99.90;;;;;;5086509;28;20097;-85
2023/03/23 10:26:42;;;;;;;6.05;1.50;;;19.40;99.90;;;;;;5084962;28;20080;-86
2023/03/23 10:29:15;;;;;;;;;;;18.70;99.90;;;;;;5068147;28;20467;-85
2023/03/23 10:31:46;;;;;;;7.97;1.60;;;17.80;99.90;;;;;;5062776;28;19951;-86
2023/03/23 10:34:28;;;;;;;9.32;2.40;;;17.90;99.90;;;;;;5068460;28;22043;-86
2023/03/23 10:37:13;;;;;;;8.88;2.28;;;17.60;99.90;;;;;;5061602;28;20030;-85
2023/03/23 10:39:54;;;;;;;6.68;1.80;;;16.90;99.90;;;;;;5069887;28;20036;-86
2023/03/23 10:42:31;;;;;;;7.30;2.00;;;17.00;99.90;;;;;;5061868;28;20065;-87
2023/03/23 10:44:59;;;;;;;7.63;2.22;;;16.70;99.90;;;;;;5069050;28;20036;-87
2023/03/23 10:47:25;;;;;;;7.03;2.38;;;16.70;99.90;;;;;;5068212;28;20028;-85
2023/03/23 10:49:57;;;;;;;8.43;2.65;;;17.30;99.90;;;;;;5067905;28;20035;-86
2023/03/23 10:52:29;;;;;;;7.67;1.83;;;16.90;99.90;;;;;;5082495;28;20079;-87
2023/03/23 10:55:00;;;;;;;10.90;2.53;;;16.90;99.90;;;;;;5066279;28;20298;-87
2023/03/23 10:57:29;;;;;;;7.30;1.95;;;17.10;99.90;;;;;;5065413;28;20109;-86
2023/03/23 11:00:18;;;;;;;7.18;1.65;;;17.70;99.90;;;;;;5061585;28;20113;-87
2023/03/23 11:02:47;;;;;;;8.13;1.83;;;18.00;99.90;;;;;;5066573;28;20016;-86
2023/03/23 11:05:26;;;;;;;7.45;2.15;;;17.70;99.90;;;;;;5070129;28;20036;-84
2023/03/23 11:07:56;;;;;;;8.38;1.88;;;18.10;99.90;;;;;;5076162;28;20028;-86
2023/03/23 11:10:47;;;;;;;8.35;2.10;;;18.20;99.90;;;;;;5068785;28;20024;-87
2023/03/23 11:13:15;;;;;;;7.25;1.77;;;17.80;99.90;;;;;;5068128;28;20643;-87
2023/03/23 11:15:42;;;;;;;6.18;1.60;;;17.10;99.90;;;;;;5068758;28;20025;-88
2023/03/23 11:18:17;;;;;;;5.85;1.42;;;16.90;99.90;;;;;;5067648;28;20462;-84
2023/03/23 11:20:48;;;;;;;8.35;2.30;;;17.70;99.90;;;;;;5068875;28;20108;-84
2023/03/23 11:23:27;;;;;;;6.82;1.90;;;18.00;99.90;;;;;;5061887;28;20032;-83
2023/03/23 11:25:57;;;;;;;5.88;1.70;;;18.50;99.90;;;;;;5061694;28;20040;-84
2023/03/23 11:28:32;;;;;;;5.28;1.35;;;18.80;99.90;;;;;;5059963;28;20031;-85
2023/03/23 11:31:03;;;;;;;6.72;1.42;;;18.90;99.90;;;;;;5065071;28;20048;-83
2023/03/23 11:33:31;;;;;;;7.35;2.03;;;19.00;99.90;;;;;;5060012;28;20036;-85
2023/03/23 11:35:57;;;;;;;6.57;1.58;;;19.90;99.90;;;;;;5062079;28;20166;-84
2023/03/23 11:38:27;;;;;;;7.70;1.67;;;20.80;99.90;;;;;;5062560;28;20111;-85
2023/03/23 11:40:54;;;;;;;4.97;1.45;;;20.80;99.90;;;;;;5065885;28;20033;-84
2023/03/23 11:43:24;;;;;;;5.90;1.40;;;19.70;99.90;;;;;;5059797;28;20571;-86
2023/03/23 11:46:11;;;;;;;7.47;1.90;;;18.50;99.90;;;;;;5060906;28;20028;-87
2023/03/23 11:48:47;;;;;;;6.13;1.60;;;17.40;99.90;;;;;;5067382;28;20020;-86
2023/03/23 11:51:21;;;;;;;8.32;1.70;;;16.70;99.90;;;;;;5066271;28;20061;-86
2023/03/23 11:54:24;;;;;;;8.95;1.83;;;16.30;99.90;;;;;;5067123;28;20116;-85
2023/03/23 11:56:50;;;;;;;4.25;1.33;;;15.90;99.90;;;;;;5062076;28;20141;-84
2023/03/23 11:59:18;;;;;;;5.70;1.27;;;15.70;99.90;;;;;;5065109;28;20543;-85
2023/03/23 12:02:08;;;;;;;5.53;1.50;;;15.60;99.90;;;;;;5065818;28;20024;-86
2023/03/23 12:05:11;;;;;;;4.22;1.45;;;15.40;99.90;;;;;;5064204;28;20041;-85
2023/03/23 12:07:47;;;;;;;9.45;1.67;;;15.20;99.90;;;;;;5065150;28;20413;-86
2023/03/23 12:10:41;;;;;;;5.72;1.60;;;15.20;99.90;;;;;;5064468;28;20044;-85
2023/03/23 12:13:53;;;;;;;7.15;1.50;;;15.20;99.90;;;;;;5063991;28;20036;-86
2023/03/23 12:16:53;;;;;;;4.82;1.15;;;15.20;99.90;;;;;;5063676;28;20029;-84
2023/03/23 12:19:42;;;;;;;4.25;1.30;;;15.10;99.90;;;;;;5047952;28;20044;-85
2023/03/23 12:22:36;;;;;;;6.30;1.90;;;15.20;99.90;;;;;;5059147;28;20155;-86
2023/03/23 12:25:05;;;;;;;4.57;1.70;;;15.50;99.90;;;;;;5080499;28;20701;-84
2023/03/23 12:27:47;;;;;;;6.28;1.60;;;15.90;99.90;;;;;;5063436;28;20021;-85
2023/03/23 12:30:21;;;;;;;8.55;1.65;;;16.60;99.90;;;;;;5067749;28;20402;-86
2023/03/23 12:32:46;;;;;;;3.17;1.05;;;17.10;99.90;;;;;;5065870;28;20040;-84
2023/03/23 12:35:18;;;;;;;4.20;1.35;;;17.10;99.90;;;;;;5063217;28;20090;-84
2023/03/23 12:38:08;;;;;;;4.60;1.40;;;17.40;99.90;;;;;;5061908;28;20813;-85
2023/03/23 12:40:36;;;;;;;4.07;1.33;;;17.40;99.90;;;;;;5063366;28;20682;-85
2023/03/23 12:43:28;;;;;;;6.80;1.50;;;17.10;99.90;;;;;;5065933;28;20029;-84
2023/03/23 12:46:29;;;;;;;4.30;1.52;;;16.70;99.90;;;;;;5066629;28;20460;-85
2023/03/23 12:49:11;;;;;;;4.07;1.13;;;16.50;99.90;;;;;;5083729;28;20031;-84
2023/03/23 12:52:11;;;;;;;4.50;1.42;;;16.30;99.90;;;;;;5069437;28;20028;-85
2023/03/23 12:54:37;;;;;;;5.70;1.23;;;16.20;99.90;;;;;;5072298;28;20093;-84
2023/03/23 12:57:20;;;;;;;5.00;1.45;;;16.00;99.90;;;;;;5069277;28;20025;-84
2023/03/23 12:59:52;;;;;;;6.93;2.05;;;15.50;99.90;;;;;;5067855;28;20021;-85
2023/03/23 13:02:28;;;;;;;6.75;2.03;;;14.30;99.90;;;;;;5062490;28;20036;-85
2023/03/23 13:05:26;;;;;;;6.28;1.67;;;13.40;99.90;;;;;;5067483;28;20083;-84
2023/03/23 13:08:27;;;;;;;3.60;1.15;;;12.80;99.90;;;;;;5059184;28;20058;-84